createdAt,value
2018-11-02T00:02:24.927Z,100889.27
2018-11-02T00:04:55.882Z,100889.68
2018-11-02T00:07:26.011Z,100880.52
2018-11-02T00:09:56.096Z,100895.84
2018-11-02T00:12:25.937Z,100894.87
2018-11-02T00:14:55.971Z,100893.13
2018-11-02T00:17:27.102Z,100895.52
2018-11-02T00:19:58.760Z,100901.63
2018-11-02T00:22:29.652Z,100906.77
2018-11-02T00:25:00.640Z,100908.73
2018-11-02T00:27:31.748Z,100915.73
2018-11-02T00:30:02.411Z,100918.97
2018-11-02T00:32:33.505Z,100930.88
2018-11-02T00:35:04.972Z,100934.43
2018-11-02T00:37:37.147Z,100940.82
2018-11-02T00:40:09.816Z,100936.95
2018-11-02T00:42:41.151Z,100937.83
2018-11-02T00:45:13.637Z,100936.70
2018-11-02T00:47:44.411Z,100933.62
2018-11-02T00:50:16.209Z,100937.12
2018-11-02T00:52:46.694Z,100936.09
2018-11-02T00:55:18.021Z,100928.34
2018-11-02T00:57:48.514Z,100935.55
2018-11-02T01:00:19.405Z,100939.28
2018-11-02T01:02:50.903Z,100933.55
2018-11-02T01:05:21.737Z,100935.81
2018-11-02T01:07:54.011Z,100934.41
2018-11-02T01:10:24.576Z,100934.23
2018-11-02T01:12:56.263Z,100950.84
2018-11-02T01:15:27.655Z,100950.31
2018-11-02T01:17:58.983Z,100958.70
2018-11-02T01:20:29.761Z,100942.77
2018-11-02T01:22:59.746Z,100933.98
2018-11-02T01:25:30.529Z,100944.25
2018-11-02T01:28:02.641Z,100957.36
2018-11-02T01:30:35.431Z,100958.32
2018-11-02T01:33:06.265Z,100960.32
2018-11-02T01:35:37.116Z,100964.52
2018-11-02T01:38:07.803Z,100970.98
2018-11-02T01:40:38.665Z,100970.16
2018-11-02T01:43:12.092Z,100978.19
2018-11-02T01:45:43.517Z,100977.69
2018-11-02T01:48:14.463Z,100981.26
2018-11-02T01:50:46.683Z,100973.83
2018-11-02T01:53:17.557Z,100963.09
2018-11-02T01:58:26.293Z,100960.62
2018-11-02T02:00:58.285Z,100962.31
2018-11-02T02:03:29.813Z,100958.22
2018-11-02T02:06:02.184Z,100958.46
2018-11-02T02:08:33.985Z,100952.48
2018-11-02T02:11:06.317Z,100959.59
2018-11-02T02:13:37.084Z,100962.06
2018-11-02T02:16:09.204Z,100963.39
2018-11-02T02:18:39.193Z,100959.11
2018-11-02T02:21:10.119Z,100956.25
2018-11-02T02:23:41.624Z,100959.20
2018-11-02T02:26:11.941Z,100957.94
2018-11-02T02:28:43.097Z,100957.91
2018-11-02T02:31:14.327Z,100959.00
2018-11-02T02:33:45.878Z,100957.84
2018-11-02T02:36:16.959Z,100965.46
2018-11-02T02:38:47.514Z,100964.12
2018-11-02T02:41:18.287Z,100964.36
2018-11-02T02:43:49.930Z,100964.53
2018-11-02T02:46:21.278Z,100966.42
2018-11-02T02:48:52.114Z,100967.55
2018-11-02T02:51:24.516Z,100967.90
2018-11-02T02:53:54.196Z,100966.42
2018-11-02T02:56:24.934Z,100975.10
2018-11-02T02:58:55.927Z,100981.42
2018-11-02T03:01:26.211Z,100984.51
2018-11-02T03:03:56.354Z,100994.77
2018-11-02T03:06:26.559Z,100984.20
2018-11-02T03:08:58.022Z,100981.73
2018-11-02T03:11:37.630Z,100983.20
2018-11-02T03:14:10.041Z,100983.96
2018-11-02T03:16:41.961Z,100985.02
2018-11-02T03:19:14.230Z,100980.39
2018-11-02T03:21:47.215Z,100979.47
2018-11-02T03:24:27.514Z,100984.48
2018-11-02T03:27:00.228Z,100987.16
2018-11-02T03:29:31.405Z,100989.25
2018-11-02T03:32:06.442Z,100993.20
2018-11-02T03:34:38.929Z,100994.43
2018-11-02T03:37:10.887Z,101000.34
2018-11-02T03:39:43.680Z,101000.68
2018-11-02T03:42:14.591Z,101001.84
2018-11-02T03:44:44.913Z,101008.91
2018-11-02T03:47:16.593Z,101003.70
2018-11-02T03:49:48.348Z,101002.30
2018-11-02T03:52:17.972Z,101006.55
2018-11-02T03:54:48.047Z,101008.84
2018-11-02T03:57:19.295Z,101010.59
2018-11-02T03:59:49.311Z,101010.33
2018-11-02T04:02:20.258Z,101026.45
2018-11-02T04:04:57.783Z,101028.79
2018-11-02T04:07:30.031Z,101027.05
2018-11-02T04:10:03.469Z,101029.83
2018-11-02T04:12:33.989Z,101023.98
2018-11-02T04:15:05.693Z,101023.61
2018-11-02T04:17:38.708Z,101033.70
2018-11-02T04:20:09.824Z,101026.94
2018-11-02T04:22:41.193Z,101025.56
2018-11-02T04:25:12.480Z,101034.97
2018-11-02T04:27:44.060Z,101022.92
2018-11-02T04:30:15.665Z,101027.56
2018-11-02T04:32:47.222Z,101030.78
2018-11-02T04:35:17.868Z,101027.00
2018-11-02T04:37:48.123Z,101028.55
2018-11-02T04:40:20.003Z,101023.64
2018-11-02T04:42:51.458Z,101025.67
2018-11-02T04:45:26.797Z,101019.97
2018-11-02T04:47:58.751Z,101020.77
2018-11-02T04:50:29.472Z,101015.23
2018-11-02T04:53:00.659Z,101008.81
2018-11-02T04:55:31.307Z,101007.54
2018-11-02T04:58:01.167Z,101012.83
2018-11-02T05:00:31.798Z,101019.73
2018-11-02T05:03:06.004Z,101012.93
2018-11-02T05:05:38.740Z,101021.23
2018-11-02T05:08:09.152Z,101028.79
2018-11-02T05:10:42.338Z,101034.88
2018-11-02T05:13:16.730Z,101044.11
2018-11-02T05:15:48.319Z,101043.48
2018-11-02T05:18:18.505Z,101049.39
2018-11-02T05:20:49.351Z,101052.52
2018-11-02T05:23:20.493Z,101051.14
2018-11-02T05:25:51.765Z,101053.20
2018-11-02T05:28:23.939Z,101057.16
2018-11-02T05:30:55.986Z,101062.88
2018-11-02T05:33:26.989Z,101064.67
2018-11-02T05:35:59.580Z,101074.77
2018-11-02T05:38:29.899Z,101077.95
2018-11-02T05:41:01.248Z,101074.19
2018-11-02T05:43:38.595Z,101078.96
2018-11-02T05:46:11.720Z,101084.31
2018-11-02T05:48:45.413Z,101091.98
2018-11-02T05:51:19.956Z,101091.77
2018-11-02T05:53:52.422Z,101099.28
2018-11-02T05:59:12.171Z,101110.87
2018-11-02T06:01:44.176Z,101116.91
2018-11-02T06:04:15.652Z,101127.22
2018-11-02T06:06:49.087Z,101129.77
2018-11-02T06:09:23.574Z,101146.77
2018-11-02T06:11:58.084Z,101135.33
2018-11-02T06:14:38.757Z,101142.92
2018-11-02T06:17:14.009Z,101157.69
2018-11-02T06:19:50.984Z,101160.37
2018-11-02T06:22:22.815Z,101162.81
2018-11-02T06:24:54.665Z,101170.16
2018-11-02T06:27:28.320Z,101173.12
2018-11-02T06:30:00.263Z,101177.21
2018-11-02T06:32:30.957Z,101179.34
2018-11-02T06:35:01.614Z,101186.45
2018-11-02T06:37:34.420Z,101174.45
2018-11-02T06:40:06.573Z,101172.56
2018-11-02T06:42:39.297Z,101167.90
2018-11-02T06:45:13.957Z,101171.27
2018-11-02T06:47:47.067Z,101173.73
2018-11-02T06:50:18.266Z,101189.31
2018-11-02T06:52:50.025Z,101192.57
2018-11-02T06:55:23.214Z,101197.62
2018-11-02T06:57:55.381Z,101199.83
2018-11-02T07:00:26.477Z,101213.84
2018-11-02T07:02:58.044Z,101204.84
2018-11-02T07:05:29.009Z,101211.17
2018-11-02T07:08:02.820Z,101211.66
2018-11-02T07:10:35.456Z,101217.36
2018-11-02T07:13:13.012Z,101229.39
2018-11-02T07:15:51.065Z,101225.74
2018-11-02T07:18:21.530Z,101223.09
2018-11-02T07:20:53.555Z,101230.67
2018-11-02T07:23:25.518Z,101233.44
2018-11-02T07:25:57.237Z,101240.53
2018-11-02T07:28:29.002Z,101246.48
2018-11-02T07:31:00.654Z,101245.41
2018-11-02T07:33:33.231Z,101252.01
2018-11-02T07:36:07.993Z,101256.00
2018-11-02T07:38:40.452Z,101254.77
2018-11-02T07:41:12.596Z,101266.48
2018-11-02T07:43:43.711Z,101272.98
2018-11-02T07:46:14.784Z,101258.70
2018-11-02T07:48:46.088Z,101270.38
2018-11-02T07:51:17.271Z,101276.08
2018-11-02T07:55:12.830Z,101270.98
2018-11-02T07:57:44.276Z,101273.21
2018-11-02T08:00:17.552Z,101277.30
2018-11-02T08:02:51.775Z,101271.14
2018-11-02T08:05:34.060Z,101278.92
2018-11-02T08:08:08.600Z,101273.34
2018-11-02T08:10:41.020Z,101278.92
2018-11-02T08:13:12.932Z,101280.92
2018-11-02T08:15:43.745Z,101273.98
2018-11-02T08:18:15.001Z,101272.39
2018-11-02T08:20:45.961Z,101284.84
2018-11-02T08:23:17.761Z,101270.84
2018-11-02T08:25:48.662Z,101285.02
2018-11-02T08:28:20.466Z,101280.03
2018-11-02T08:30:51.579Z,101282.92
2018-11-02T08:33:24.060Z,101275.55
2018-11-02T08:35:56.659Z,101294.45
2018-11-02T08:38:27.767Z,101289.70
2018-11-02T08:40:58.835Z,101276.83
2018-11-02T08:43:30.837Z,101279.30
2018-11-02T08:46:05.785Z,101277.61
2018-11-02T08:48:47.889Z,101272.27
2018-11-02T08:51:23.648Z,101286.62
2018-11-02T08:53:55.866Z,101287.63
2018-11-02T08:56:27.832Z,101288.36
2018-11-02T08:59:30.209Z,101287.39
2018-11-02T09:02:01.351Z,101297.95
2018-11-02T09:04:31.687Z,101291.52
2018-11-02T09:07:02.207Z,101295.99
2018-11-02T09:09:32.487Z,101300.39
2018-11-02T09:12:02.796Z,101310.65
2018-11-02T09:17:11.778Z,101312.47
2018-11-02T09:19:42.218Z,101320.59
2018-11-02T09:22:12.390Z,101323.34
2018-11-02T09:24:42.302Z,101331.58
2018-11-02T09:27:12.782Z,101339.84
2018-11-02T09:29:43.570Z,101347.53
2018-11-02T09:32:14.113Z,101343.58
2018-11-02T09:34:44.074Z,101350.15
2018-11-02T09:37:14.788Z,101347.88
2018-11-02T09:39:44.907Z,101358.89
2018-11-02T09:42:15.173Z,101359.97
2018-11-02T09:44:45.478Z,101363.48
2018-11-02T09:47:15.718Z,101361.22
2018-11-02T09:49:48.328Z,101375.70
2018-11-02T09:52:20.857Z,101384.45
2018-11-02T09:54:51.011Z,101391.57
2018-11-02T09:57:22.416Z,101398.56
2018-11-02T09:59:56.243Z,101397.16
2018-11-02T10:02:27.965Z,101401.08
2018-11-02T10:05:03.291Z,101409.34
2018-11-02T10:07:39.701Z,101410.91
2018-11-02T10:10:14.196Z,101418.67
2018-11-02T10:12:43.957Z,101417.11
2018-11-02T10:15:15.543Z,101416.75
2018-11-02T10:17:45.800Z,101424.19
2018-11-02T10:20:15.723Z,101432.11
2018-11-02T10:22:46.147Z,101447.34
2018-11-02T10:25:16.538Z,101441.81
2018-11-02T10:27:46.613Z,101449.73
2018-11-02T10:30:17.473Z,101446.64
2018-11-02T10:32:51.868Z,101460.98
2018-11-02T10:35:22.567Z,101475.92
2018-11-02T10:37:53.549Z,101489.27
2018-11-02T10:40:25.649Z,101485.34
2018-11-02T10:43:01.770Z,101478.70
2018-11-02T10:45:37.873Z,101488.61
2018-11-02T10:48:09.315Z,101491.70
2018-11-02T10:50:41.152Z,101497.29
2018-11-02T10:53:12.791Z,101495.25
2018-11-02T10:55:43.316Z,101498.44
2018-11-02T10:58:14.269Z,101496.37
2018-11-02T11:00:50.228Z,101510.16
2018-11-02T11:03:21.299Z,101513.62
2018-11-02T11:05:51.288Z,101518.22
2018-11-02T11:09:13.281Z,101531.00
2018-11-02T11:11:43.881Z,101544.54
2018-11-02T11:14:14.098Z,101549.50
2018-11-02T11:16:44.326Z,101547.80
2018-11-02T11:19:14.956Z,101547.67
2018-11-02T11:21:44.764Z,101552.98
2018-11-02T11:24:16.016Z,101555.28
2018-11-02T11:26:46.631Z,101567.80
2018-11-02T11:29:19.554Z,101576.56
2018-11-02T11:31:53.287Z,101582.28
2018-11-02T11:34:25.043Z,101594.23
2018-11-02T11:36:55.149Z,101594.84
2018-11-02T11:39:28.288Z,101614.92
2018-11-02T11:41:58.756Z,101617.06
2018-11-02T11:44:42.059Z,101614.50
2018-11-02T11:47:13.196Z,101631.34
2018-11-02T11:49:44.382Z,101636.33
2018-11-02T11:52:24.824Z,101636.95
2018-11-02T11:54:57.062Z,101636.26
2018-11-02T11:57:34.777Z,101650.73
2018-11-02T12:00:06.901Z,101652.20
2018-11-02T12:02:38.584Z,101655.41
2018-11-02T12:20:09.159Z,101678.61
2018-11-02T12:26:00.787Z,101683.97
2018-11-02T12:28:40.307Z,101689.75
2018-11-02T12:31:11.640Z,101690.78
2018-11-02T12:39:42.423Z,101709.70
2018-11-02T12:42:41.111Z,101719.98
2018-11-02T13:37:31.242Z,101808.80
2018-11-02T13:43:55.183Z,101814.20
2018-11-02T13:46:42.960Z,101828.20
2018-11-02T13:49:31.098Z,101820.03
2018-11-02T13:55:37.282Z,101820.98
2018-11-02T13:58:10.684Z,101842.41
2018-11-02T14:01:05.715Z,101844.84
2018-11-02T14:30:31.418Z,101901.73
2018-11-02T14:33:25.660Z,101916.36
2018-11-02T14:36:09.292Z,101915.15
2018-11-02T14:38:59.757Z,101924.36
2018-11-02T14:44:57.883Z,101942.28
2018-11-02T14:51:54.520Z,101947.83
2018-11-02T14:54:58.612Z,101972.42
2018-11-02T14:57:44.528Z,101974.91
2018-11-02T15:16:05.701Z,101995.93
2018-11-02T15:21:35.750Z,102008.07
2018-11-02T15:24:51.951Z,102020.34
2018-11-02T15:27:26.773Z,102023.13
2018-11-02T15:30:02.057Z,102026.00
2018-11-02T15:32:33.678Z,102026.05
2018-11-02T15:35:34.789Z,102036.37
2018-11-02T15:38:14.966Z,102040.83
2018-11-02T15:40:47.345Z,102047.50
2018-11-02T15:46:50.295Z,102063.45
2018-11-02T15:49:23.462Z,102061.75
2018-11-02T17:24:18.337Z,102189.34
2018-11-02T17:27:11.761Z,102181.28
2018-11-02T17:37:09.715Z,102191.34
2018-11-02T17:55:40.751Z,102214.14
2018-11-02T17:58:27.480Z,102214.73
2018-11-02T19:07:02.590Z,102318.15
2018-11-02T19:17:23.974Z,102320.21
2018-11-02T19:30:19.006Z,102328.66
2018-11-02T21:44:45.777Z,102480.11
2018-11-02T22:31:16.302Z,102498.61
2018-11-02T22:34:00.516Z,102507.78
2018-11-02T23:01:48.957Z,102532.23
2018-11-02T23:26:23.604Z,102550.65
